Time;durP1;ratioP1;P1;durP2;ratioP2;P2;SDS_P1;SDS_P2;PMS_P1;PMS_P2;Temp;Humidity;BMP_temperature;BMP_pressure;BME280_temperature;BME280_humidity;BME280_pressure;Samples;Min_cycle;Max_cycle;Signal;HPM_P1;HPM_P2
2022/08/31 00:05:09;;;;;;;0.00;0.00;;;18.20;99.90;;;;;;4999155;28;20050;-71
2022/08/31 00:07:35;;;;;;;0.10;0.10;;;18.10;99.90;;;;;;4992142;28;20126;-70
2022/08/31 00:10:13;;;;;;;0.00;0.00;;;18.10;99.90;;;;;;4992287;28;20054;-70
2022/08/31 00:12:40;;;;;;;0.00;0.00;;;18.00;99.90;;;;;;4992957;28;20085;-70
2022/08/31 00:15:07;;;;;;;0.10;0.10;;;18.10;99.90;;;;;;4991520;28;20038;-70
2022/08/31 00:17:33;;;;;;;0.45;0.30;;;18.10;99.90;;;;;;4991687;28;20066;-70
2022/08/31 00:19:58;;;;;;;0.10;0.10;;;18.00;99.90;;;;;;4994977;28;20461;-70
2022/08/31 00:22:24;;;;;;;0.20;0.20;;;18.00;99.90;;;;;;5004726;28;20038;-70
2022/08/31 00:24:49;;;;;;;0.00;0.00;;;18.10;99.90;;;;;;4992699;28;20510;-70
2022/08/31 00:27:15;;;;;;;0.00;0.00;;;18.10;99.90;;;;;;4992312;28;20045;-70
2022/08/31 00:29:41;;;;;;;0.08;0.08;;;18.00;99.90;;;;;;4991028;28;20081;-70
2022/08/31 00:32:06;;;;;;;0.20;0.20;;;17.90;99.90;;;;;;4992822;28;20172;-70
2022/08/31 00:34:32;;;;;;;0.00;0.00;;;18.00;99.90;;;;;;5010568;28;20080;-70
2022/08/31 00:36:59;;;;;;;0.00;0.00;;;18.00;99.90;;;;;;5010725;28;20046;-70
2022/08/31 00:39:25;;;;;;;0.00;0.00;;;17.90;99.90;;;;;;5011008;28;20057;-70
2022/08/31 00:41:50;;;;;;;0.00;0.00;;;17.90;99.90;;;;;;5005733;28;20049;-71
2022/08/31 00:44:17;;;;;;;0.00;0.00;;;17.90;99.90;;;;;;4994600;28;20050;-70
2022/08/31 00:46:42;;;;;;;0.00;0.00;;;17.80;99.90;;;;;;4991864;28;20048;-70
2022/08/31 00:49:12;;;;;;;0.00;0.00;;;17.80;99.90;;;;;;4991494;28;20137;-71
2022/08/31 00:51:50;;;;;;;0.10;0.10;;;17.70;99.90;;;;;;4989892;28;20046;-70
2022/08/31 00:54:20;;;;;;;0.00;0.00;;;17.70;99.90;;;;;;4993149;28;20061;-70
2022/08/31 00:56:46;;;;;;;0.10;0.10;;;17.70;99.90;;;;;;5006215;28;20497;-70
2022/08/31 00:59:15;;;;;;;0.00;0.00;;;17.70;99.90;;;;;;4990781;28;20493;-70
2022/08/31 01:01:41;;;;;;;0.00;0.00;;;17.60;99.90;;;;;;4994053;28;20054;-71
2022/08/31 01:04:06;;;;;;;0.10;0.10;;;17.60;99.90;;;;;;5001224;28;20034;-70
2022/08/31 01:06:32;;;;;;;0.00;0.00;;;17.60;99.90;;;;;;4989824;28;20494;-70
2022/08/31 01:09:01;;;;;;;0.00;0.00;;;17.60;99.90;;;;;;5001098;28;20485;-70
2022/08/31 01:11:27;;;;;;;0.10;0.10;;;17.50;99.90;;;;;;4995937;28;20050;-70
2022/08/31 01:13:54;;;;;;;0.40;0.35;;;17.50;99.90;;;;;;4994538;28;20045;-70
2022/08/31 01:16:34;;;;;;;0.00;0.00;;;17.40;99.90;;;;;;5002217;28;20038;-70
2022/08/31 01:19:04;;;;;;;0.00;0.00;;;17.40;99.90;;;;;;4990219;28;20053;-70
2022/08/31 01:21:55;;;;;;;0.00;0.00;;;17.30;99.90;;;;;;5007966;28;20049;-70
2022/08/31 01:24:23;;;;;;;0.00;0.00;;;17.30;99.90;;;;;;4989880;28;20062;-70
2022/08/31 01:26:50;;;;;;;0.20;0.20;;;17.20;99.90;;;;;;4990492;28;20526;-70
2022/08/31 01:29:16;;;;;;;0.63;0.63;;;17.20;99.90;;;;;;4991243;28;20410;-69
2022/08/31 01:31:44;;;;;;;0.00;0.00;;;17.10;99.90;;;;;;4990346;28;20138;-70
2022/08/31 01:34:11;;;;;;;0.00;0.00;;;17.10;99.90;;;;;;5000417;28;20080;-70
2022/08/31 01:36:40;;;;;;;0.45;0.20;;;17.00;99.90;;;;;;5007483;28;20084;-70
2022/08/31 01:39:08;;;;;;;0.08;0.08;;;17.00;99.90;;;;;;5008018;28;20124;-70
2022/08/31 01:41:34;;;;;;;0.00;0.00;;;16.90;99.90;;;;;;5007821;28;20509;-70
2022/08/31 01:44:00;;;;;;;2.35;0.20;;;16.90;99.90;;;;;;5006828;28;20379;-70
2022/08/31 01:46:26;;;;;;;0.10;0.10;;;16.90;99.90;;;;;;4996501;28;20048;-70
2022/08/31 01:48:52;;;;;;;0.00;0.00;;;16.90;99.90;;;;;;4991045;28;20084;-70
2022/08/31 01:51:20;;;;;;;0.00;0.00;;;16.80;99.90;;;;;;5004632;28;20050;-70
2022/08/31 01:53:48;;;;;;;0.00;0.00;;;16.80;99.90;;;;;;5001700;28;20490;-70
2022/08/31 01:56:17;;;;;;;0.00;0.00;;;16.70;99.90;;;;;;4990648;28;20101;-70
2022/08/31 01:58:42;;;;;;;0.17;0.17;;;16.80;99.90;;;;;;4991527;28;20058;-70
2022/08/31 02:01:08;;;;;;;0.10;0.10;;;16.70;99.90;;;;;;5005468;28;20477;-70
2022/08/31 02:03:34;;;;;;;0.08;0.08;;;16.60;99.90;;;;;;4990985;28;20125;-70
2022/08/31 02:06:07;;;;;;;0.08;0.08;;;16.70;99.90;;;;;;5003205;28;20402;-70
2022/08/31 02:08:33;;;;;;;0.00;0.00;;;16.60;99.90;;;;;;5009325;28;20038;-69
2022/08/31 02:10:59;;;;;;;0.10;0.10;;;16.60;99.90;;;;;;4990328;28;20483;-70
2022/08/31 02:13:25;;;;;;;0.10;0.10;;;16.60;99.90;;;;;;5007364;28;20045;-70
2022/08/31 02:15:50;;;;;;;0.03;0.03;;;16.50;99.90;;;;;;5016363;28;20080;-70
2022/08/31 02:18:16;;;;;;;0.00;0.00;;;16.60;99.90;;;;;;5012879;28;20056;-69
2022/08/31 02:20:41;;;;;;;0.00;0.00;;;16.60;99.90;;;;;;4996949;28;20483;-70
2022/08/31 02:23:07;;;;;;;0.00;0.00;;;16.60;99.90;;;;;;4995924;28;20046;-70
2022/08/31 02:25:33;;;;;;;0.10;0.10;;;16.50;99.90;;;;;;4997644;28;20039;-70
2022/08/31 02:27:59;;;;;;;0.00;0.00;;;16.50;99.90;;;;;;5010037;28;20449;-70
2022/08/31 02:30:24;;;;;;;0.10;0.10;;;16.50;99.90;;;;;;5014928;28;20095;-70
2022/08/31 02:32:50;;;;;;;0.00;0.00;;;16.60;99.90;;;;;;5010126;28;20440;-70
2022/08/31 02:35:16;;;;;;;0.00;0.00;;;16.50;99.90;;;;;;4996051;28;20042;-70
2022/08/31 02:37:41;;;;;;;0.00;0.00;;;16.50;99.90;;;;;;5005396;28;20042;-70
2022/08/31 02:40:08;;;;;;;0.25;0.25;;;16.50;99.90;;;;;;5008505;28;20050;-70
2022/08/31 02:42:34;;;;;;;0.00;0.00;;;16.50;99.90;;;;;;4994314;28;20132;-70
2022/08/31 02:45:00;;;;;;;0.20;0.20;;;16.40;99.90;;;;;;4995633;28;20455;-70
2022/08/31 02:47:29;;;;;;;8.35;0.47;;;16.50;99.90;;;;;;5003178;28;20100;-70
2022/08/31 02:49:55;;;;;;;0.00;0.00;;;16.40;99.90;;;;;;4996140;28;20109;-70
2022/08/31 02:52:20;;;;;;;0.00;0.00;;;16.40;99.90;;;;;;4996588;28;20492;-70
2022/08/31 02:54:46;;;;;;;0.10;0.10;;;16.40;99.90;;;;;;4996851;28;20467;-70
2022/08/31 02:57:11;;;;;;;0.15;0.15;;;16.50;99.90;;;;;;4999721;28;20053;-70
2022/08/31 02:59:37;;;;;;;1.08;1.00;;;16.40;99.90;;;;;;5006738;28;20057;-70
2022/08/31 03:02:02;;;;;;;0.00;0.00;;;16.40;99.90;;;;;;5014925;28;20050;-70
2022/08/31 03:04:28;;;;;;;0.10;0.10;;;16.40;99.90;;;;;;5015805;28;20499;-70
2022/08/31 03:06:55;;;;;;;0.00;0.00;;;16.30;99.90;;;;;;5005550;28;20105;-70
2022/08/31 03:09:21;;;;;;;0.10;0.10;;;16.30;99.90;;;;;;4996514;28;20089;-70
2022/08/31 03:11:47;;;;;;;0.00;0.00;;;16.30;99.90;;;;;;4996571;28;20073;-70
2022/08/31 03:14:12;;;;;;;0.10;0.10;;;16.20;99.90;;;;;;4998847;28;20050;-70
2022/08/31 03:16:39;;;;;;;0.10;0.10;;;16.10;99.90;;;;;;5002039;28;20088;-70
2022/08/31 03:19:06;;;;;;;0.10;0.10;;;16.20;99.90;;;;;;4994909;28;20046;-70
2022/08/31 03:21:31;;;;;;;0.08;0.08;;;16.20;99.90;;;;;;4996591;28;20043;-70
2022/08/31 03:23:57;;;;;;;0.00;0.00;;;16.10;99.90;;;;;;4995417;28;20049;-70
2022/08/31 03:26:23;;;;;;;0.10;0.10;;;16.00;99.90;;;;;;5005686;28;20107;-70
2022/08/31 03:28:48;;;;;;;0.10;0.10;;;16.00;99.90;;;;;;4996711;28;20060;-70
2022/08/31 03:31:14;;;;;;;0.00;0.00;;;15.90;99.90;;;;;;5009301;28;20054;-70
2022/08/31 03:33:40;;;;;;;0.10;0.10;;;15.90;99.90;;;;;;4993121;28;20384;-70
2022/08/31 03:36:06;;;;;;;0.10;0.10;;;15.90;99.90;;;;;;5012421;28;20367;-70
2022/08/31 03:38:32;;;;;;;0.00;0.00;;;15.90;99.90;;;;;;4999145;28;20046;-70
2022/08/31 03:40:58;;;;;;;0.00;0.00;;;15.90;99.90;;;;;;5006055;28;20042;-70
2022/08/31 03:43:24;;;;;;;0.00;0.00;;;15.80;99.90;;;;;;4996079;28;20057;-70
2022/08/31 03:45:50;;;;;;;0.08;0.08;;;15.80;99.90;;;;;;4997519;28;20124;-70
2022/08/31 03:48:15;;;;;;;0.03;0.03;;;15.80;99.90;;;;;;5011788;28;20057;-70
2022/08/31 03:50:42;;;;;;;0.08;0.08;;;15.80;99.90;;;;;;5008835;28;20076;-70
2022/08/31 03:53:08;;;;;;;0.00;0.00;;;15.80;99.90;;;;;;4996349;28;20038;-70
2022/08/31 03:55:37;;;;;;;0.15;0.15;;;15.80;99.90;;;;;;5011132;28;20056;-70
2022/08/31 03:58:03;;;;;;;0.30;0.30;;;15.80;99.90;;;;;;5010833;28;20081;-70
2022/08/31 04:00:30;;;;;;;0.00;0.00;;;15.80;99.90;;;;;;5007110;28;20089;-70
2022/08/31 04:02:58;;;;;;;0.00;0.00;;;15.80;99.90;;;;;;4992618;28;20038;-70
2022/08/31 04:05:25;;;;;;;0.10;0.10;;;15.80;99.90;;;;;;5000558;28;20407;-70
2022/08/31 04:07:52;;;;;;;0.10;0.10;;;15.80;99.90;;;;;;5009450;28;20077;-70
2022/08/31 04:10:17;;;;;;;0.10;0.10;;;15.80;99.90;;;;;;4993994;28;20050;-70
2022/08/31 04:12:43;;;;;;;0.05;0.05;;;15.80;99.90;;;;;;4993565;28;20081;-70
2022/08/31 04:15:09;;;;;;;0.35;0.35;;;15.80;99.90;;;;;;4991477;28;20042;-70
2022/08/31 04:17:35;;;;;;;0.10;0.10;;;15.90;99.90;;;;;;4991589;28;20044;-70
2022/08/31 04:20:01;;;;;;;0.10;0.10;;;15.90;99.90;;;;;;4993779;28;20406;-69
2022/08/31 04:22:26;;;;;;;0.10;0.10;;;15.90;99.90;;;;;;5007279;28;20046;-69
2022/08/31 04:24:52;;;;;;;0.00;0.00;;;15.90;99.90;;;;;;5010069;28;20062;-70
2022/08/31 04:27:17;;;;;;;0.10;0.10;;;15.90;99.90;;;;;;5011264;28;20049;-70
2022/08/31 04:29:43;;;;;;;0.10;0.10;;;15.90;99.90;;;;;;5010094;28;20140;-70
2022/08/31 04:32:09;;;;;;;0.10;0.10;;;15.90;99.90;;;;;;5010225;28;20132;-70
2022/08/31 04:34:34;;;;;;;0.05;0.05;;;15.90;99.90;;;;;;4997422;28;20100;-70
2022/08/31 04:37:00;;;;;;;0.00;0.00;;;15.80;99.90;;;;;;4991305;28;20050;-71
2022/08/31 04:39:26;;;;;;;0.00;0.00;;;15.80;99.90;;;;;;4994377;28;20049;-70
2022/08/31 04:41:51;;;;;;;0.10;0.10;;;15.70;99.90;;;;;;4998670;28;20108;-70
2022/08/31 04:44:17;;;;;;;0.10;0.10;;;15.70;99.90;;;;;;4991733;28;20710;-70
2022/08/31 04:46:42;;;;;;;0.10;0.10;;;15.70;99.90;;;;;;4991191;28;20046;-70
2022/08/31 04:49:09;;;;;;;0.10;0.10;;;15.70;99.90;;;;;;5000730;28;20054;-71
2022/08/31 04:51:37;;;;;;;0.10;0.10;;;15.70;99.90;;;;;;5011385;28;20062;-70
2022/08/31 04:54:08;;;;;;;0.05;0.05;;;15.70;99.90;;;;;;5011581;28;20053;-71
2022/08/31 04:56:38;;;;;;;0.10;0.10;;;15.70;99.90;;;;;;5006419;28;20038;-71
2022/08/31 04:59:06;;;;;;;0.20;0.20;;;15.70;99.90;;;;;;4993628;28;20062;-71
2022/08/31 05:01:35;;;;;;;0.10;0.10;;;15.70;99.90;;;;;;4994480;28;20149;-71
2022/08/31 05:04:01;;;;;;;0.00;0.00;;;15.70;99.90;;;;;;4995650;28;20135;-71
2022/08/31 05:06:32;;;;;;;0.10;0.10;;;15.70;99.90;;;;;;4990831;28;20065;-71
2022/08/31 05:09:01;;;;;;;0.13;0.13;;;15.80;99.90;;;;;;4990708;28;20085;-71
2022/08/31 05:11:27;;;;;;;0.00;0.00;;;15.80;99.90;;;;;;5007091;28;20100;-71
2022/08/31 05:13:56;;;;;;;0.10;0.10;;;15.80;99.90;;;;;;5011134;28;20033;-71
2022/08/31 05:16:21;;;;;;;0.47;0.45;;;15.80;99.90;;;;;;4999642;28;20096;-71
2022/08/31 05:18:48;;;;;;;0.10;0.10;;;15.90;99.90;;;;;;4997776;28;20042;-71
2022/08/31 05:21:29;;;;;;;0.10;0.10;;;15.90;99.90;;;;;;4989882;28;20038;-71
2022/08/31 05:23:56;;;;;;;0.00;0.00;;;15.90;99.90;;;;;;4999085;28;20071;-71
2022/08/31 05:26:24;;;;;;;0.00;0.00;;;16.00;99.90;;;;;;4989084;28;20050;-71
2022/08/31 05:28:50;;;;;;;0.70;0.30;;;16.00;99.90;;;;;;4990912;28;20046;-71
2022/08/31 05:31:16;;;;;;;0.30;0.30;;;16.00;99.90;;;;;;5003258;28;20470;-71
2022/08/31 05:33:43;;;;;;;0.00;0.00;;;16.00;99.90;;;;;;5007278;28;20044;-72
2022/08/31 05:36:09;;;;;;;0.15;0.15;;;16.10;99.90;;;;;;5004847;28;20042;-71
2022/08/31 05:38:35;;;;;;;0.00;0.00;;;16.10;99.90;;;;;;5010066;28;20050;-71
2022/08/31 05:41:02;;;;;;;0.10;0.10;;;16.10;99.90;;;;;;5002739;28;20050;-71
2022/08/31 05:43:28;;;;;;;0.10;0.10;;;16.10;99.90;;;;;;4997278;28;20498;-71
2022/08/31 05:45:54;;;;;;;0.00;0.00;;;16.10;99.90;;;;;;4990247;28;20073;-71
2022/08/31 05:48:21;;;;;;;0.00;0.00;;;16.20;99.90;;;;;;4988128;28;20046;-71
2022/08/31 05:50:47;;;;;;;0.20;0.20;;;16.20;99.90;;;;;;4997091;28;20060;-71
2022/08/31 05:53:14;;;;;;;0.10;0.10;;;16.20;99.90;;;;;;5008742;28;20076;-71
2022/08/31 05:55:39;;;;;;;0.10;0.10;;;16.30;99.90;;;;;;4991639;28;20085;-71
2022/08/31 05:58:05;;;;;;;0.10;0.10;;;16.40;99.90;;;;;;4990559;28;20072;-71
2022/08/31 06:00:32;;;;;;;0.10;0.10;;;16.40;99.90;;;;;;4997531;28;20049;-71
2022/08/31 06:02:58;;;;;;;0.00;0.00;;;16.40;99.90;;;;;;4998969;28;20132;-72
2022/08/31 06:05:23;;;;;;;0.10;0.10;;;16.50;99.90;;;;;;4990725;28;20133;-71
2022/08/31 06:07:50;;;;;;;0.00;0.00;;;16.50;99.90;;;;;;4989980;28;20089;-71
2022/08/31 06:10:17;;;;;;;0.10;0.10;;;16.50;99.90;;;;;;4990401;28;20391;-71
2022/08/31 06:12:46;;;;;;;0.10;0.10;;;16.60;99.90;;;;;;4991806;28;20046;-71
2022/08/31 06:15:12;;;;;;;0.08;0.08;;;16.60;99.90;;;;;;4989668;28;20682;-71
2022/08/31 06:17:38;;;;;;;0.00;0.00;;;16.60;99.90;;;;;;4990414;28;20523;-72
2022/08/31 06:20:05;;;;;;;0.03;0.03;;;16.60;99.90;;;;;;4990166;28;20081;-71
2022/08/31 06:22:33;;;;;;;0.10;0.10;;;16.60;99.90;;;;;;4991501;28;20250;-71
2022/08/31 06:24:59;;;;;;;0.00;0.00;;;16.70;99.90;;;;;;4993850;28;20414;-71
2022/08/31 06:27:26;;;;;;;0.22;0.22;;;16.70;99.90;;;;;;5000088;28;20053;-72
2022/08/31 06:29:52;;;;;;;0.15;0.15;;;16.70;99.90;;;;;;4997800;28;20080;-73
2022/08/31 06:32:19;;;;;;;0.17;0.17;;;16.70;99.90;;;;;;4992010;28;20050;-73
2022/08/31 06:34:45;;;;;;;0.10;0.10;;;16.70;99.90;;;;;;5002635;28;20409;-73
2022/08/31 06:37:11;;;;;;;0.35;0.35;;;16.80;99.90;;;;;;5004841;28;20058;-73
2022/08/31 06:39:37;;;;;;;0.00;0.00;;;16.90;99.90;;;;;;4996410;28;20125;-73
2022/08/31 06:42:03;;;;;;;0.10;0.10;;;16.90;99.90;;;;;;5008340;28;20125;-73
2022/08/31 06:44:29;;;;;;;0.17;0.17;;;17.00;99.90;;;;;;5001086;28;20108;-73
2022/08/31 06:46:55;;;;;;;0.00;0.00;;;17.00;99.90;;;;;;4990120;28;20054;-73
2022/08/31 06:49:21;;;;;;;0.00;0.00;;;17.00;99.90;;;;;;4988526;28;20058;-73
2022/08/31 06:51:48;;;;;;;0.00;0.00;;;17.10;99.90;;;;;;4988658;28;20038;-73
2022/08/31 06:54:16;;;;;;;0.00;0.00;;;17.10;99.90;;;;;;4989795;28;20050;-73
2022/08/31 06:56:42;;;;;;;0.00;0.00;;;17.20;99.90;;;;;;4989639;28;20101;-73
2022/08/31 06:59:08;;;;;;;0.10;0.10;;;17.30;99.90;;;;;;5000807;28;20413;-74
2022/08/31 07:01:35;;;;;;;0.00;0.00;;;17.30;99.90;;;;;;5009150;28;20046;-73
2022/08/31 07:04:04;;;;;;;0.00;0.00;;;17.30;99.90;;;;;;5010020;28;20063;-73
2022/08/31 07:06:34;;;;;;;0.00;0.00;;;17.40;99.90;;;;;;4998927;28;20169;-73
2022/08/31 07:09:02;;;;;;;0.00;0.00;;;17.40;99.90;;;;;;5008063;28;20038;-73
2022/08/31 07:11:32;;;;;;;0.00;0.00;;;17.40;99.90;;;;;;5010459;28;20479;-73
2022/08/31 07:13:58;;;;;;;0.03;0.03;;;17.50;99.90;;;;;;5012430;28;20382;-72
2022/08/31 07:16:25;;;;;;;1.65;0.30;;;17.60;99.90;;;;;;5012083;28;20057;-72
2022/08/31 07:18:53;;;;;;;0.10;0.10;;;17.60;99.90;;;;;;4992206;28;20050;-72
2022/08/31 07:21:37;;;;;;;0.20;0.20;;;17.70;99.90;;;;;;4993581;28;20046;-72
2022/08/31 07:24:06;;;;;;;0.00;0.00;;;17.70;99.90;;;;;;5002669;28;20133;-72
2022/08/31 07:26:35;;;;;;;0.00;0.00;;;17.80;99.90;;;;;;4998721;28;20058;-72
2022/08/31 07:29:03;;;;;;;0.05;0.05;;;17.80;99.90;;;;;;5007942;28;20485;-72
2022/08/31 07:31:42;;;;;;;0.00;0.00;;;17.80;99.90;;;;;;5005356;28;20050;-72
2022/08/31 07:34:09;;;;;;;0.03;0.03;;;17.90;99.90;;;;;;4991590;28;20054;-72
2022/08/31 07:42:07;;;;;;;0.00;0.00;;;17.90;99.90;;;;;;5006978;28;20275;-73
2022/08/31 07:42:09;;;;;;;0.00;0.00;;;18.10;99.90;;;;;;5012761;28;20152;-73
2022/08/31 07:44:36;;;;;;;0.00;0.00;;;18.20;99.90;;;;;;5002401;28;20064;-73
2022/08/31 07:47:04;;;;;;;0.10;0.10;;;18.20;99.90;;;;;;4998422;28;20054;-73
2022/08/31 07:49:30;;;;;;;0.00;0.00;;;18.20;99.90;;;;;;5003495;28;20046;-73
2022/08/31 07:51:56;;;;;;;0.00;0.00;;;18.30;99.90;;;;;;4992028;28;20406;-73
2022/08/31 07:54:26;;;;;;;0.10;0.10;;;18.30;99.90;;;;;;4996248;28;20041;-73
2022/08/31 07:56:59;;;;;;;0.10;0.10;;;18.40;99.90;;;;;;4999048;28;20050;-73
2022/08/31 07:59:25;;;;;;;0.00;0.00;;;18.40;99.90;;;;;;5004689;28;20050;-73
2022/08/31 08:01:54;;;;;;;0.10;0.10;;;18.50;99.90;;;;;;5005487;28;20061;-74
2022/08/31 08:04:24;;;;;;;0.00;0.00;;;18.50;99.90;;;;;;4992966;28;20445;-73
2022/08/31 08:06:55;;;;;;;0.10;0.10;;;18.60;99.90;;;;;;4991209;28;20113;-73
2022/08/31 08:09:25;;;;;;;0.00;0.00;;;18.70;99.90;;;;;;4992035;28;20244;-73
2022/08/31 08:11:56;;;;;;;0.00;0.00;;;18.70;99.90;;;;;;4992621;28;20086;-73
2022/08/31 08:14:26;;;;;;;0.05;0.05;;;18.80;99.90;;;;;;4993903;28;20042;-73
2022/08/31 08:16:53;;;;;;;0.00;0.00;;;18.80;99.90;;;;;;4999497;28;20093;-73
2022/08/31 08:19:19;;;;;;;0.00;0.00;;;18.80;99.90;;;;;;4992690;28;20053;-74
2022/08/31 08:21:45;;;;;;;0.00;0.00;;;18.80;99.90;;;;;;4991348;28;20050;-73
2022/08/31 08:24:11;;;;;;;0.08;0.08;;;18.80;99.90;;;;;;4990995;28;20061;-73
2022/08/31 08:26:41;;;;;;;0.05;0.05;;;18.90;99.90;;;;;;4991586;28;20387;-73
2022/08/31 08:29:07;;;;;;;0.00;0.00;;;19.00;99.90;;;;;;4994382;28;20054;-73
2022/08/31 08:31:32;;;;;;;0.10;0.10;;;19.10;99.90;;;;;;4992322;28;20046;-73
2022/08/31 08:33:58;;;;;;;0.00;0.00;;;19.20;99.90;;;;;;4999530;28;20433;-73
2022/08/31 08:36:24;;;;;;;0.00;0.00;;;19.30;99.90;;;;;;4999565;28;20046;-73
2022/08/31 08:38:52;;;;;;;0.08;0.08;;;19.30;99.90;;;;;;4990757;28;20058;-73
2022/08/31 08:41:21;;;;;;;0.10;0.10;;;19.40;99.90;;;;;;5002092;28;20103;-73
2022/08/31 08:43:51;;;;;;;0.00;0.00;;;19.40;99.90;;;;;;4991623;28;20049;-73
2022/08/31 08:46:20;;;;;;;0.10;0.10;;;19.40;99.90;;;;;;5001475;28;20519;-73
2022/08/31 08:48:47;;;;;;;0.03;0.03;;;19.50;99.90;;;;;;5010734;28;20083;-73
2022/08/31 08:51:19;;;;;;;0.00;0.00;;;19.50;99.90;;;;;;5011074;28;20126;-73
2022/08/31 08:53:50;;;;;;;0.00;0.00;;;19.60;99.90;;;;;;4996672;28;20104;-73
2022/08/31 08:56:16;;;;;;;0.00;0.00;;;19.60;99.90;;;;;;4991623;28;20092;-73
2022/08/31 08:58:43;;;;;;;0.00;0.00;;;19.70;99.90;;;;;;4991586;28;20506;-74
2022/08/31 09:01:20;;;;;;;0.00;0.00;;;19.70;99.90;;;;;;4991541;28;20046;-73
2022/08/31 09:04:06;;;;;;;0.00;0.00;;;19.90;99.90;;;;;;4990381;28;20372;-73
2022/08/31 09:06:48;;;;;;;0.30;0.30;;;20.40;99.90;;;;;;4992142;28;20070;-72
2022/08/31 09:09:28;;;;;;;0.10;0.10;;;21.40;99.00;;;;;;4990670;28;20097;-72
2022/08/31 09:12:10;;;;;;;0.05;0.05;;;22.20;98.60;;;;;;4990910;28;20060;-72
2022/08/31 09:15:02;;;;;;;2.85;1.25;;;22.90;97.20;;;;;;4991312;28;20046;-72
2022/08/31 09:17:41;;;;;;;0.00;0.00;;;23.20;95.70;;;;;;4991098;28;20517;-72
2022/08/31 09:20:11;;;;;;;0.00;0.00;;;23.70;95.90;;;;;;4991559;28;20050;-71
2022/08/31 09:22:49;;;;;;;0.00;0.00;;;24.00;95.30;;;;;;4989647;28;20113;-71
2022/08/31 09:25:28;;;;;;;0.10;0.10;;;24.50;94.60;;;;;;4990430;28;20057;-72
2022/08/31 09:27:58;;;;;;;0.00;0.00;;;24.30;94.20;;;;;;4989416;28;20054;-72
2022/08/31 09:30:38;;;;;;;0.00;0.00;;;24.70;94.20;;;;;;5009938;28;20037;-72
2022/08/31 09:33:05;;;;;;;0.00;0.00;;;24.30;94.30;;;;;;5008346;28;20577;-72
2022/08/31 09:35:39;;;;;;;0.00;0.00;;;24.60;94.40;;;;;;4998806;28;20444;-72
2022/08/31 09:38:08;;;;;;;0.10;0.10;;;24.70;93.60;;;;;;4990161;28;20042;-72
2022/08/31 09:40:35;;;;;;;0.00;0.00;;;25.00;92.70;;;;;;5002076;28;20042;-72
2022/08/31 09:43:18;;;;;;;0.10;0.10;;;25.20;93.60;;;;;;5009024;28;20049;-72
2022/08/31 09:46:06;;;;;;;0.00;0.00;;;25.20;93.10;;;;;;5008866;28;20156;-72
2022/08/31 09:48:50;;;;;;;0.00;0.00;;;25.50;93.40;;;;;;5010599;28;20061;-72
2022/08/31 09:51:34;;;;;;;0.00;0.00;;;25.90;92.80;;;;;;5000555;28;20042;-72
2022/08/31 09:57:03;;;;;;;0.00;0.00;;;25.90;92.60;;;;;;4989063;28;20046;-72
2022/08/31 09:59:40;;;;;;;0.00;0.00;;;26.10;92.40;;;;;;4989116;28;20055;-72
2022/08/31 10:02:08;;;;;;;0.00;0.00;;;26.10;92.30;;;;;;4998156;28;20888;-71
2022/08/31 10:04:46;;;;;;;0.10;0.10;;;26.60;92.10;;;;;;4997039;28;20077;-72
2022/08/31 10:07:36;;;;;;;0.00;0.00;;;26.30;92.50;;;;;;4988521;28;20050;-71
2022/08/31 10:10:20;;;;;;;0.00;0.00;;;26.10;92.30;;;;;;4989754;28;20054;-71
2022/08/31 10:13:01;;;;;;;0.00;0.00;;;26.40;91.80;;;;;;4990212;28;20115;-71
2022/08/31 10:15:38;;;;;;;0.00;0.00;;;26.60;92.60;;;;;;4993657;28;20057;-71
2022/08/31 10:18:22;;;;;;;0.00;0.00;;;26.60;92.30;;;;;;4989917;28;20054;-71
2022/08/31 10:21:10;;;;;;;0.10;0.00;;;26.20;91.50;;;;;;4989296;28;20050;-71
2022/08/31 10:23:39;;;;;;;0.00;0.00;;;25.50;91.60;;;;;;5001670;28;20054;-71
2022/08/31 10:26:37;;;;;;;0.00;0.00;;;25.20;91.70;;;;;;4990627;28;20043;-71
2022/08/31 10:29:33;;;;;;;0.00;0.00;;;24.70;92.60;;;;;;5000490;28;20425;-72
2022/08/31 10:32:06;;;;;;;0.00;0.00;;;24.20;92.90;;;;;;4995736;28;20448;-72
2022/08/31 10:37:31;;;;;;;0.00;0.00;;;23.90;92.10;;;;;;4999307;28;20054;-72
2022/08/31 10:40:03;;;;;;;0.00;0.00;;;23.80;92.60;;;;;;4994983;28;20042;-72
2022/08/31 10:42:36;;;;;;;0.00;0.00;;;24.10;93.00;;;;;;4999122;28;20038;-71
2022/08/31 10:45:21;;;;;;;0.13;0.10;;;24.40;92.40;;;;;;5000376;28;20485;-71
2022/08/31 10:47:48;;;;;;;0.00;0.00;;;24.60;92.80;;;;;;4994726;28;20046;-71
2022/08/31 10:50:28;;;;;;;0.00;0.00;;;24.70;93.00;;;;;;5010937;28;20741;-71
2022/08/31 10:53:21;;;;;;;0.00;0.00;;;25.00;92.70;;;;;;4998707;28;20077;-72
2022/08/31 10:56:01;;;;;;;0.00;0.00;;;25.30;92.80;;;;;;4990521;28;20130;-72
2022/08/31 10:59:06;;;;;;;0.00;0.00;;;25.30;92.50;;;;;;5004809;28;20132;-71
2022/08/31 11:02:01;;;;;;;0.00;0.00;;;25.30;92.40;;;;;;4993887;28;20137;-71
2022/08/31 11:04:47;;;;;;;0.00;0.00;;;25.40;93.10;;;;;;4995645;28;20046;-71
2022/08/31 11:07:37;;;;;;;0.00;0.00;;;25.60;92.60;;;;;;5000874;28;20088;-71
2022/08/31 11:10:21;;;;;;;0.00;0.00;;;25.70;92.10;;;;;;4997730;28;20496;-72
2022/08/31 11:12:54;;;;;;;0.00;0.00;;;25.60;92.40;;;;;;4998397;28;20200;-72
2022/08/31 11:15:37;;;;;;;0.00;0.00;;;25.60;92.10;;;;;;4993946;28;20097;-72
2022/08/31 11:18:17;;;;;;;0.00;0.00;;;25.60;93.20;;;;;;4992897;28;20066;-71
2022/08/31 11:21:13;;;;;;;0.00;0.00;;;25.80;93.40;;;;;;4993102;28;20050;-72
2022/08/31 11:24:10;;;;;;;0.00;0.00;;;25.40;93.40;;;;;;4991609;28;20046;-71
2022/08/31 11:26:44;;;;;;;0.32;0.28;;;25.10;93.50;;;;;;5005433;28;20046;-72
2022/08/31 11:29:49;;;;;;;0.00;0.00;;;24.70;93.50;;;;;;4996209;28;20513;-71
2022/08/31 11:32:24;;;;;;;0.00;0.00;;;25.00;93.80;;;;;;5011752;28;20129;-71
2022/08/31 11:34:54;;;;;;;0.00;0.00;;;25.30;93.20;;;;;;5010032;28;20061;-72
2022/08/31 11:37:54;;;;;;;0.00;0.00;;;25.00;93.60;;;;;;5003855;28;20041;-71
2022/08/31 11:40:41;;;;;;;0.45;0.45;;;25.20;93.30;;;;;;5000251;28;20042;-71
2022/08/31 11:43:13;;;;;;;0.00;0.00;;;25.60;92.90;;;;;;5010788;28;20070;-71
2022/08/31 11:45:39;;;;;;;0.10;0.10;;;25.90;92.60;;;;;;5010387;28;20544;-71
2022/08/31 11:48:10;;;;;;;0.00;0.00;;;26.20;92.90;;;;;;4999052;28;20122;-72
2022/08/31 11:50:35;;;;;;;0.00;0.00;;;26.30;93.10;;;;;;5007233;28;20049;-72
2022/08/31 11:53:27;;;;;;;0.35;0.35;;;26.40;93.10;;;;;;5006293;28;20169;-71
2022/08/31 11:55:58;;;;;;;0.05;0.05;;;26.60;92.70;;;;;;4992736;28;20053;-71
2022/08/31 11:58:32;;;;;;;0.15;0.15;;;26.20;91.80;;;;;;4993169;28;20054;-71
2022/08/31 12:01:03;;;;;;;0.20;0.20;;;25.70;92.50;;;;;;5002570;28;20046;-71
2022/08/31 12:03:50;;;;;;;0.00;0.00;;;26.10;92.90;;;;;;5011459;28;20045;-72
2022/08/31 12:06:26;;;;;;;0.00;0.00;;;26.60;92.50;;;;;;5006493;28;20049;-72
2022/08/31 12:09:09;;;;;;;0.03;0.03;;;26.50;92.50;;;;;;5000534;28;20074;-72
2022/08/31 12:12:10;;;;;;;0.10;0.10;;;25.90;92.30;;;;;;4994051;28;20553;-72
2022/08/31 12:14:50;;;;;;;0.55;0.55;;;26.40;92.10;;;;;;5005715;28;20548;-72
2022/08/31 12:17:21;;;;;;;2.92;0.10;;;26.80;92.00;;;;;;5010097;28;20077;-72
2022/08/31 12:20:00;;;;;;;0.00;0.00;;;27.00;92.20;;;;;;5003435;28;20046;-72
2022/08/31 12:25:40;;;;;;;0.00;0.00;;;27.30;91.90;;;;;;4995135;28;20053;-72
2022/08/31 12:28:26;;;;;;;5.13;0.43;;;27.40;91.80;;;;;;4989145;28;20109;-73
2022/08/31 12:30:55;;;;;;;0.20;0.20;;;27.40;91.90;;;;;;5001814;28;20052;-72
2022/08/31 12:33:25;;;;;;;0.00;0.00;;;27.40;91.80;;;;;;5004518;28;20414;-74
2022/08/31 12:36:15;;;;;;;0.00;0.00;;;27.30;91.50;;;;;;5005129;28;20128;-72
2022/08/31 12:38:42;;;;;;;0.00;0.00;;;27.40;91.70;;;;;;4991235;28;20065;-72
2022/08/31 12:41:13;;;;;;;0.00;0.00;;;27.50;91.40;;;;;;4994036;28;20065;-72
2022/08/31 12:43:43;;;;;;;0.00;0.00;;;27.90;91.50;;;;;;4995406;28;20449;-73
2022/08/31 12:46:21;;;;;;;0.05;0.05;;;27.70;91.70;;;;;;4990992;28;20406;-73
2022/08/31 12:48:52;;;;;;;0.00;0.00;;;27.60;91.40;;;;;;4991353;28;20046;-73
2022/08/31 12:51:42;;;;;;;0.00;0.00;;;27.80;91.90;;;;;;4991535;28;20069;-73
2022/08/31 12:54:44;;;;;;;0.00;0.00;;;27.30;91.30;;;;;;4991327;28;20097;-71
2022/08/31 12:57:40;;;;;;;0.00;0.00;;;27.50;91.00;;;;;;4991885;28;20046;-72
2022/08/31 13:00:26;;;;;;;0.00;0.00;;;27.90;91.60;;;;;;4991533;28;20116;-72
2022/08/31 13:02:57;;;;;;;0.00;0.00;;;28.00;91.30;;;;;;4993225;28;20086;-73
2022/08/31 13:05:35;;;;;;;0.00;0.00;;;28.20;91.50;;;;;;5005441;28;20046;-72
2022/08/31 13:08:21;;;;;;;8.07;1.67;;;28.20;90.30;;;;;;5002930;28;20046;-74
2022/08/31 13:10:46;;;;;;;0.00;0.00;;;28.20;90.90;;;;;;4991463;28;20052;-71
2022/08/31 13:13:26;;;;;;;0.00;0.00;;;28.40;91.10;;;;;;4990558;28;20402;-73
2022/08/31 13:15:59;;;;;;;0.05;0.05;;;28.40;90.80;;;;;;4990888;28;20054;-72
2022/08/31 13:18:29;;;;;;;0.00;0.00;;;28.20;90.60;;;;;;4996591;28;20514;-74
2022/08/31 13:21:02;;;;;;;0.00;0.00;;;28.60;91.00;;;;;;4991068;28;20061;-74
2022/08/31 13:23:38;;;;;;;0.00;0.00;;;28.40;90.20;;;;;;4992736;28;20050;-73